Time;durP1;ratioP1;P1;durP2;ratioP2;P2;SDS_P1;SDS_P2;PMS_P1;PMS_P2;Temp;Humidity;BMP_temperature;BMP_pressure;BME280_temperature;BME280_humidity;BME280_pressure;Samples;Min_cycle;Max_cycle;Signal;HPM_P1;HPM_P2
2023/01/08 01:27:34;;;;;;;46.60;38.27;;;;;;;23.23;35.25;95604.56;5168163;27;20445;-55
2023/01/08 01:30:34;;;;;;;49.17;40.40;;;;;;;22.80;35.07;95602.66;5117606;27;20582;-58
2023/01/08 01:33:00;;;;;;;50.07;41.63;;;;;;;22.72;35.53;95612.38;5105133;28;20455;-58
2023/01/08 01:35:25;;;;;;;53.20;40.87;;;;;;;22.67;35.71;95616.13;5124106;28;20621;-59
2023/01/08 01:37:50;;;;;;;33.27;26.80;;;;;;;22.66;33.37;95611.78;5103200;28;20888;-59
2023/01/08 01:40:16;;;;;;;66.53;51.53;;;;;;;21.73;32.57;95610.44;5126286;28;20542;-58
2023/01/08 01:42:42;;;;;;;72.20;54.23;;;;;;;21.32;31.45;95611.28;5127088;27;20554;-59
2023/01/08 01:45:22;;;;;;;86.07;62.00;;;;;;;20.89;30.81;95613.91;5086493;28;20182;-61
2023/01/08 01:47:59;;;;;;;120.77;89.13;;;;;;;20.65;30.64;95601.72;5118192;28;20539;-60
2023/01/08 01:50:32;;;;;;;109.10;81.93;;;;;;;20.51;30.59;95599.53;5093613;28;20456;-59
2023/01/08 01:53:04;;;;;;;116.17;85.97;;;;;;;20.22;30.75;95593.03;5087300;28;20452;-59
2023/01/08 01:55:30;;;;;;;77.57;61.90;;;;;;;20.16;30.74;95597.97;5110010;28;20437;-59
2023/01/08 01:58:14;;;;;;;48.20;37.27;;;;;;;19.90;30.55;95584.06;5094219;28;20471;-57
2023/01/08 02:02:12;;;;;;;24.63;19.00;;;;;;;20.09;30.48;95589.50;5064374;28;20577;-57
2023/01/08 02:04:37;;;;;;;21.83;16.03;;;;;;;20.07;30.61;95590.06;5052766;28;20428;-59
2023/01/08 02:07:06;;;;;;;28.90;21.87;;;;;;;20.39;30.99;95579.44;5038458;28;20197;-64
2023/01/08 02:10:13;;;;;;;43.07;33.43;;;;;;;20.62;31.44;95579.66;5053307;28;20200;-58
2023/01/08 02:12:42;;;;;;;34.40;27.00;;;;;;;20.94;33.98;95570.97;5025663;28;20489;-59
2023/01/08 17:38:41;;;;;;;16.53;8.67;;;;;;;21.12;54.69;94926.22;5143367;27;20572;-62
2023/01/08 17:41:08;;;;;;;9.53;7.70;;;;;;;21.20;54.15;94929.00;5123902;27;20472;-63
2023/01/08 17:43:34;;;;;;;11.60;7.20;;;;;;;21.29;53.75;94917.19;5124437;27;20695;-66
2023/01/08 17:46:01;;;;;;;10.57;7.07;;;;;;;21.39;53.96;94906.88;5123949;27;20914;-66
2023/01/08 17:48:27;;;;;;;11.67;7.83;;;;;;;21.49;54.37;94911.34;5124524;27;20455;-65
2023/01/08 17:50:52;;;;;;;9.70;7.33;;;;;;;21.57;54.22;94914.84;5121125;27;20888;-66
2023/01/08 17:53:18;;;;;;;8.40;7.23;;;;;;;21.63;54.19;94913.88;5127592;27;20175;-66
2023/01/08 17:55:43;;;;;;;11.30;8.33;;;;;;;21.70;53.85;94911.03;5125951;27;20544;-66
2023/01/08 17:58:09;;;;;;;15.83;8.77;;;;;;;21.74;53.94;94911.38;5125920;27;20666;-65
2023/01/08 18:00:34;;;;;;;9.63;7.93;;;;;;;21.79;53.87;94907.63;5125653;27;20729;-66
2023/01/08 18:02:59;;;;;;;10.93;7.90;;;;;;;21.82;53.82;94909.28;5126656;27;20636;-66
2023/01/08 18:05:25;;;;;;;12.43;7.20;;;;;;;21.85;53.82;94901.81;5123921;27;20191;-65
2023/01/08 18:07:50;;;;;;;10.23;7.70;;;;;;;21.87;53.85;94897.13;5119845;27;20183;-68
2023/01/08 18:10:16;;;;;;;9.63;7.10;;;;;;;21.92;53.30;94898.97;5127434;27;20187;-66
2023/01/08 18:12:41;;;;;;;9.73;6.30;;;;;;;22.00;53.24;94899.66;5126613;27;20205;-66
2023/01/08 18:15:07;;;;;;;8.83;6.87;;;;;;;22.01;53.61;94901.16;5122161;27;20262;-65
2023/01/08 18:17:33;;;;;;;9.33;6.43;;;;;;;22.02;53.53;94899.09;5120915;27;20654;-66
2023/01/08 18:19:58;;;;;;;8.90;7.00;;;;;;;22.03;53.69;94889.34;5121557;27;20436;-66
2023/01/08 18:22:23;;;;;;;16.10;6.50;;;;;;;22.03;53.80;94880.94;5114450;27;20221;-66
2023/01/08 18:24:49;;;;;;;11.40;7.63;;;;;;;22.05;54.02;94883.91;5119653;27;20741;-66
2023/01/08 18:27:14;;;;;;;10.60;7.20;;;;;;;22.05;53.93;94890.25;5123777;27;20921;-66
2023/01/08 18:29:40;;;;;;;10.40;6.70;;;;;;;22.02;53.80;94891.44;5119122;27;20198;-66
2023/01/08 18:32:05;;;;;;;12.73;6.40;;;;;;;22.07;53.50;94892.50;5124476;27;20298;-65
2023/01/08 18:34:31;;;;;;;7.73;6.93;;;;;;;22.08;53.68;94885.59;5124193;27;20631;-65
2023/01/08 18:36:56;;;;;;;10.97;7.40;;;;;;;22.09;53.47;94885.00;5126549;27;20234;-64
2023/01/08 18:39:21;;;;;;;8.27;6.87;;;;;;;22.10;53.54;94888.56;5123889;27;20182;-65
2023/01/08 18:44:31;;;;;;;9.37;6.80;;;;;;;22.10;53.64;94875.28;5117367;27;20190;-64
2023/01/08 18:46:56;;;;;;;11.53;7.63;;;;;;;22.10;53.78;94872.47;5120551;27;20432;-65
2023/01/08 18:49:23;;;;;;;16.77;6.70;;;;;;;22.14;53.68;94867.19;5113924;27;20183;-64
2023/01/08 18:51:48;;;;;;;13.93;7.90;;;;;;;22.14;53.67;94870.00;5109261;27;20233;-63
2023/01/08 18:54:14;;;;;;;11.13;6.83;;;;;;;22.16;53.44;94858.94;5100027;27;20448;-65
2023/01/08 18:56:39;;;;;;;10.70;7.63;;;;;;;22.18;53.35;94864.75;5104464;28;20514;-66
2023/01/08 18:59:05;;;;;;;18.53;11.60;;;;;;;22.16;52.51;94861.75;5100068;27;20180;-65
2023/01/08 19:01:31;;;;;;;14.73;9.70;;;;;;;22.17;52.73;94852.00;5105828;27;20652;-67
2023/01/08 19:03:57;;;;;;;16.80;10.50;;;;;;;22.18;52.96;94842.28;5114706;27;20172;-68
2023/01/08 19:06:22;;;;;;;10.93;9.73;;;;;;;22.20;52.88;94852.94;5105155;27;20182;-67
2023/01/08 19:08:48;;;;;;;10.80;9.60;;;;;;;22.20;52.69;94842.44;5111617;27;20175;-67
2023/01/08 19:11:13;;;;;;;10.57;9.03;;;;;;;22.19;52.61;94840.94;5111513;28;20179;-68
2023/01/08 19:13:39;;;;;;;16.20;10.20;;;;;;;22.18;52.82;94831.06;5107875;27;20175;-68
2023/01/08 19:16:05;;;;;;;13.27;10.73;;;;;;;22.20;52.66;94822.81;5105033;27;20634;-67
2023/01/08 19:18:31;;;;;;;14.30;10.30;;;;;;;22.22;52.67;94806.13;5105868;27;20282;-68
2023/01/08 19:20:56;;;;;;;14.23;11.63;;;;;;;22.22;52.37;94803.31;5108791;28;20436;-67
2023/01/08 19:23:22;;;;;;;13.20;11.53;;;;;;;22.22;52.48;94803.31;5105781;27;20624;-66
2023/01/08 19:25:47;;;;;;;13.57;10.80;;;;;;;22.21;52.11;94801.81;5095117;28;20274;-67
2023/01/08 19:28:13;;;;;;;12.27;10.47;;;;;;;22.21;52.32;94784.97;5107784;27;20650;-66
2023/01/08 19:30:39;;;;;;;12.33;10.60;;;;;;;22.21;52.29;94779.38;5106442;27;20179;-67
2023/01/08 19:33:04;;;;;;;12.20;10.53;;;;;;;22.18;52.30;94780.53;5103171;28;20183;-68
2023/01/08 19:35:30;;;;;;;13.47;10.30;;;;;;;22.20;52.58;94772.28;5104656;27;20480;-69
2023/01/08 19:37:55;;;;;;;13.53;10.67;;;;;;;22.19;52.19;94762.34;5100785;28;20590;-68
2023/01/08 19:40:21;;;;;;;12.00;10.37;;;;;;;22.18;52.32;94766.50;5106334;27;20211;-68
2023/01/08 19:45:31;;;;;;;12.00;9.40;;;;;;;22.22;52.43;94749.25;5101970;27;20229;-68
2023/01/08 19:47:56;;;;;;;14.07;11.10;;;;;;;22.20;52.37;94747.00;5096401;28;20859;-69
2023/01/08 19:50:22;;;;;;;14.43;9.70;;;;;;;22.22;52.20;94738.75;5101106;28;20642;-68
2023/01/08 19:52:50;;;;;;;12.40;11.10;;;;;;;22.20;52.24;94727.38;5098126;28;21047;-71
2023/01/08 19:55:18;;;;;;;14.43;10.37;;;;;;;22.20;52.61;94726.63;5101522;27;20321;-70
2023/01/08 19:57:43;;;;;;;13.70;10.60;;;;;;;22.23;52.36;94719.84;5104120;28;20469;-67
2023/01/08 20:00:09;;;;;;;12.07;9.60;;;;;;;22.24;52.73;94721.34;5097399;27;20494;-67
2023/01/08 20:04:22;;;;;;;14.77;11.10;;;;;;;22.26;52.57;94725.06;5089798;27;20604;-60
2023/01/08 20:06:48;;;;;;;12.77;9.97;;;;;;;22.24;52.52;94722.09;5078363;28;20458;-62
2023/01/08 20:09:13;;;;;;;12.03;9.90;;;;;;;22.22;52.55;94727.53;5079295;28;20196;-61
2023/01/08 20:11:39;;;;;;;14.30;10.63;;;;;;;22.21;52.73;94722.47;5079028;28;20787;-61
2023/01/08 20:14:04;;;;;;;13.50;9.93;;;;;;;22.18;53.00;94720.84;5079651;28;20202;-61
2023/01/08 20:16:29;;;;;;;11.77;9.50;;;;;;;22.19;53.08;94720.25;5077911;28;20670;-62
2023/01/08 20:18:56;;;;;;;15.87;9.40;;;;;;;22.22;52.79;94721.91;5094614;28;20273;-62
2023/01/08 20:21:22;;;;;;;16.87;10.60;;;;;;;22.22;52.68;94713.50;5084812;28;20200;-62
2023/01/08 20:23:57;;;;;;;11.17;9.30;;;;;;;22.20;52.80;94704.91;5092856;28;20919;-63
2023/01/08 20:26:23;;;;;;;11.67;9.10;;;;;;;22.22;53.18;94702.28;5096432;28;20469;-63
2023/01/08 20:28:49;;;;;;;15.53;8.80;;;;;;;22.20;53.24;94699.28;5081321;28;20461;-62
2023/01/08 20:31:16;;;;;;;12.73;8.50;;;;;;;22.19;53.10;94703.41;5074750;28;20188;-63
2023/01/08 20:33:42;;;;;;;9.30;8.20;;;;;;;22.21;53.26;94706.38;5086493;28;20212;-63
2023/01/08 20:36:12;;;;;;;12.43;8.60;;;;;;;22.21;53.33;94702.81;5089353;28;20469;-63
2023/01/08 20:38:38;;;;;;;10.03;8.10;;;;;;;22.22;53.26;94702.28;5073327;28;20266;-62
2023/01/08 20:41:05;;;;;;;16.43;9.10;;;;;;;22.21;53.37;94695.16;5081644;28;20458;-62
2023/01/08 20:43:31;;;;;;;11.30;8.90;;;;;;;22.22;53.41;94707.13;5085227;28;20215;-62
2023/01/08 20:45:57;;;;;;;12.17;9.80;;;;;;;22.22;53.36;94691.03;5081129;28;20499;-62
2023/01/08 20:48:22;;;;;;;11.33;8.67;;;;;;;22.22;53.41;94695.91;5074314;28;20438;-62
2023/01/08 20:50:58;;;;;;;10.13;8.43;;;;;;;22.22;53.27;94682.63;5075166;28;20561;-63
2023/01/08 20:53:25;;;;;;;10.13;8.47;;;;;;;22.22;53.42;94690.28;5078939;28;20188;-62
2023/01/08 20:55:50;;;;;;;12.07;8.50;;;;;;;22.24;53.43;94693.25;5078181;28;20497;-62
2023/01/08 20:58:16;;;;;;;10.10;8.50;;;;;;;22.23;53.63;94692.50;5072249;28;20446;-61
2023/01/08 21:00:41;;;;;;;13.17;8.37;;;;;;;22.23;53.52;94698.13;5082258;28;20184;-62
2023/01/08 21:03:07;;;;;;;10.77;8.43;;;;;;;22.23;53.20;94688.97;5075748;28;20314;-62
2023/01/08 21:05:35;;;;;;;10.30;8.10;;;;;;;22.21;53.74;94688.78;5076942;28;20191;-62
2023/01/08 21:08:01;;;;;;;10.30;8.17;;;;;;;22.22;53.44;94688.22;5072450;28;20197;-62
2023/01/08 21:10:26;;;;;;;9.23;8.20;;;;;;;22.23;53.58;94692.50;5074808;28;20529;-62
2023/01/08 21:12:52;;;;;;;11.97;8.53;;;;;;;22.22;53.36;94693.84;5082975;28;20511;-62
2023/01/08 21:15:20;;;;;;;21.17;8.97;;;;;;;22.22;53.42;94690.28;5068333;28;20637;-62
2023/01/08 21:17:46;;;;;;;12.23;9.13;;;;;;;22.22;53.44;94691.03;5068752;28;20276;-63
2023/01/08 21:20:11;;;;;;;17.60;8.47;;;;;;;22.19;53.71;94686.56;5070554;28;20453;-62
2023/01/08 21:22:37;;;;;;;9.27;8.37;;;;;;;22.20;53.58;94684.50;5061604;28;20303;-62
2023/01/08 21:25:02;;;;;;;10.00;8.00;;;;;;;22.18;53.71;94671.06;5064293;28;20242;-62
2023/01/08 21:27:28;;;;;;;10.43;8.40;;;;;;;22.18;53.85;94671.06;5069343;28;20242;-63
2023/01/08 21:29:53;;;;;;;9.60;7.70;;;;;;;22.17;53.91;94655.53;5059049;28;20205;-62
2023/01/08 21:32:18;;;;;;;9.53;7.80;;;;;;;22.19;53.58;94647.28;5063626;28;20185;-62
2023/01/08 21:34:44;;;;;;;11.10;8.47;;;;;;;22.18;53.64;94645.81;5057265;28;20192;-62
2023/01/08 21:37:10;;;;;;;10.40;8.70;;;;;;;22.17;53.84;94638.69;5066612;28;20184;-63
2023/01/08 21:39:36;;;;;;;8.50;7.50;;;;;;;22.16;53.90;94634.41;5061911;28;20246;-63
2023/01/08 21:47:29;;;;;;;9.50;8.50;;;;;;;22.16;53.86;94637.22;5063874;28;20510;-63
2023/01/08 21:49:55;;;;;;;12.83;8.53;;;;;;;22.16;53.87;94637.22;5060874;28;20451;-62
2023/01/08 21:55:04;;;;;;;8.93;7.53;;;;;;;22.18;53.69;94633.81;5070336;28;20281;-63
2023/01/08 21:57:30;;;;;;;9.70;7.83;;;;;;;22.17;53.82;94621.84;5065224;28;20446;-62
2023/01/08 21:59:55;;;;;;;10.53;8.23;;;;;;;22.19;53.75;94619.22;5064240;28;20649;-63
2023/01/08 22:02:22;;;;;;;8.40;7.50;;;;;;;22.20;53.93;94619.97;5064570;28;20627;-62
2023/01/08 22:04:47;;;;;;;8.43;7.37;;;;;;;22.19;53.88;94622.00;5063992;28;20180;-62
2023/01/08 22:07:13;;;;;;;9.43;8.30;;;;;;;22.21;53.78;94627.03;5064445;28;20858;-62
2023/01/08 22:09:38;;;;;;;9.70;8.00;;;;;;;22.20;53.95;94615.09;5059538;28;20930;-62
2023/01/08 22:12:05;;;;;;;7.93;6.80;;;;;;;22.21;53.92;94610.94;5059893;28;20258;-62
2023/01/08 22:14:30;;;;;;;10.47;7.60;;;;;;;22.22;53.60;94611.69;5051456;28;20267;-61
2023/01/08 22:16:56;;;;;;;8.83;7.70;;;;;;;22.23;53.99;94608.31;5058517;28;20446;-61
2023/01/08 22:19:21;;;;;;;7.27;6.57;;;;;;;22.23;53.72;94597.06;5053218;28;20253;-62
2023/01/08 22:21:47;;;;;;;9.93;8.13;;;;;;;22.22;53.74;94584.38;5053678;28;20203;-63
2023/01/08 22:24:12;;;;;;;9.60;6.87;;;;;;;22.21;53.85;94582.88;5055701;28;20208;-63
2023/01/08 22:26:37;;;;;;;7.53;6.73;;;;;;;22.22;53.99;94581.56;5065308;28;20671;-63
2023/01/08 22:29:04;;;;;;;7.70;6.90;;;;;;;22.22;53.98;94578.78;5069029;28;20189;-62
2023/01/08 22:31:30;;;;;;;7.83;6.57;;;;;;;22.20;54.13;94580.66;5062166;28;20193;-62
2023/01/08 22:33:56;;;;;;;9.40;7.60;;;;;;;22.21;54.20;94577.28;5065425;28;20459;-62
2023/01/08 22:36:22;;;;;;;8.03;7.23;;;;;;;22.19;54.09;94574.31;5067566;28;20189;-62
2023/01/08 22:38:47;;;;;;;9.30;8.27;;;;;;;22.19;52.87;94576.34;5067946;28;20493;-62
2023/01/08 22:41:19;;;;;;;10.27;7.60;;;;;;;22.15;53.47;94570.41;5064254;28;20574;-64
2023/01/08 22:43:44;;;;;;;10.50;9.40;;;;;;;22.17;52.74;94571.34;5065529;28;20720;-62
2023/01/08 22:46:14;;;;;;;9.50;8.50;;;;;;;22.16;52.63;94564.25;5056444;28;20451;-63
2023/01/08 22:48:40;;;;;;;7.87;7.07;;;;;;;22.17;53.33;94562.91;5069404;28;20188;-63
2023/01/08 22:51:05;;;;;;;9.60;7.40;;;;;;;22.17;53.13;94571.34;5062387;28;20497;-63
2023/01/08 22:53:31;;;;;;;9.50;7.70;;;;;;;22.16;53.32;94561.44;5068281;28;20541;-62
2023/01/08 22:55:56;;;;;;;7.90;6.83;;;;;;;22.15;53.80;94551.53;5060607;28;20603;-62
2023/01/08 22:58:22;;;;;;;9.17;7.80;;;;;;;22.15;53.73;94545.91;5062043;28;20594;-62
2023/01/08 23:00:47;;;;;;;9.37;7.70;;;;;;;22.16;53.87;94541.03;5061932;28;20177;-63
2023/01/08 23:03:12;;;;;;;8.73;7.27;;;;;;;22.17;53.84;94536.91;5061430;28;20235;-63
2023/01/08 23:05:38;;;;;;;9.80;7.77;;;;;;;22.17;53.85;94531.28;5070935;28;20212;-62
2023/01/08 23:08:04;;;;;;;10.60;7.77;;;;;;;22.15;53.83;94526.28;5058383;28;20223;-62
2023/01/08 23:10:29;;;;;;;9.20;8.30;;;;;;;22.14;53.06;94522.00;5061713;28;20208;-63
2023/01/08 23:12:55;;;;;;;8.77;7.83;;;;;;;22.13;51.82;94531.72;5063713;28;20568;-62
2023/01/08 23:15:20;;;;;;;13.80;8.37;;;;;;;22.09;52.25;94530.66;5067000;28;20189;-62
2023/01/08 23:17:46;;;;;;;10.53;8.73;;;;;;;22.06;51.51;94541.00;5059016;28;20286;-62
2023/01/08 23:20:11;;;;;;;10.97;8.40;;;;;;;22.06;51.68;94543.78;5058946;28;20807;-62
2023/01/08 23:22:37;;;;;;;9.23;8.23;;;;;;;22.03;51.83;94536.53;5063603;28;20211;-63
2023/01/08 23:25:02;;;;;;;9.67;8.47;;;;;;;22.03;52.37;94550.56;5065000;28;20185;-62
2023/01/08 23:27:28;;;;;;;7.70;7.00;;;;;;;22.03;52.64;94547.75;5063406;28;20223;-62
